createdAt,value
2023-03-19T00:02:04.070Z,101095.66
2023-03-19T00:04:41.951Z,101098.31
2023-03-19T00:07:11.641Z,101096.38
2023-03-19T00:09:41.654Z,101101.59
2023-03-19T00:12:13.567Z,101100.16
2023-03-19T00:14:43.574Z,101100.66
2023-03-19T00:17:13.656Z,101105.06
2023-03-19T00:19:43.189Z,101112.38
2023-03-19T00:22:13.440Z,101108.34
2023-03-19T00:24:43.013Z,101105.59
2023-03-19T00:27:13.563Z,101108.25
2023-03-19T00:29:43.255Z,101105.78
2023-03-19T00:32:12.978Z,101099.41
2023-03-19T00:34:43.403Z,101110.13
2023-03-19T00:37:13.755Z,101109.50
2023-03-19T00:39:43.469Z,101117.19
2023-03-19T00:42:13.584Z,101114.41
2023-03-19T00:44:43.412Z,101111.31
2023-03-19T00:47:13.498Z,101109.88
2023-03-19T00:49:43.196Z,101121.78
2023-03-19T00:52:12.793Z,101117.06
2023-03-19T00:54:43.103Z,101121.78
2023-03-19T00:57:12.933Z,101113.78
2023-03-19T00:59:42.909Z,101125.91
2023-03-19T01:02:12.564Z,101115.00
2023-03-19T01:04:42.467Z,101117.16
2023-03-19T01:07:12.914Z,101121.88
2023-03-19T01:09:42.827Z,101120.13
2023-03-19T01:12:12.663Z,101119.81
2023-03-19T01:14:42.739Z,101113.13
2023-03-19T01:17:12.411Z,101112.50
2023-03-19T01:19:41.941Z,101098.63
2023-03-19T01:22:11.636Z,101094.41
2023-03-19T01:24:41.236Z,101090.72
2023-03-19T01:27:11.382Z,101100.47
2023-03-19T01:29:41.079Z,101092.16
2023-03-19T01:32:10.693Z,101087.44
2023-03-19T01:34:40.277Z,101085.66
2023-03-19T01:37:09.882Z,101089.56
2023-03-19T01:39:39.604Z,101087.00
2023-03-19T01:42:09.894Z,101085.41
2023-03-19T01:44:41.255Z,101087.69
2023-03-19T01:47:18.361Z,101087.50
2023-03-19T01:49:59.232Z,101087.75
2023-03-19T01:52:34.103Z,101088.81
2023-03-19T01:55:07.190Z,101088.81
2023-03-19T01:57:38.102Z,101082.31
2023-03-19T02:00:09.663Z,101075.13
2023-03-19T02:02:42.731Z,101078.09
2023-03-19T02:05:19.301Z,101075.81
2023-03-19T02:07:49.190Z,101084.66
2023-03-19T02:10:20.093Z,101076.66
2023-03-19T02:12:50.029Z,101076.50
2023-03-19T02:15:20.243Z,101074.47
2023-03-19T02:17:50.807Z,101076.28
2023-03-19T02:20:29.468Z,101077.91
2023-03-19T02:23:08.125Z,101074.13
2023-03-19T02:25:47.092Z,101067.53
2023-03-19T02:28:21.148Z,101063.34
2023-03-19T02:30:50.953Z,101065.91
2023-03-19T02:33:21.809Z,101059.69
2023-03-19T02:35:54.491Z,101057.44
2023-03-19T02:38:26.198Z,101053.84
2023-03-19T02:41:03.963Z,101047.16
2023-03-19T02:43:35.801Z,101049.59
2023-03-19T02:46:07.874Z,101045.38
2023-03-19T02:48:38.221Z,101041.78
2023-03-19T02:51:08.343Z,101044.41
2023-03-19T02:53:38.348Z,101037.41
2023-03-19T02:56:08.192Z,101030.69
2023-03-19T02:58:37.869Z,101029.56
2023-03-19T03:01:07.941Z,101028.75
2023-03-19T03:03:37.573Z,101017.53
2023-03-19T03:06:07.659Z,101015.69
2023-03-19T03:08:38.259Z,101010.63
2023-03-19T03:11:08.085Z,101006.91
2023-03-19T03:13:38.214Z,101002.34
2023-03-19T03:16:08.164Z,100989.78
2023-03-19T03:18:38.291Z,100982.41
2023-03-19T03:21:07.998Z,100972.78
2023-03-19T03:23:38.238Z,100969.19
2023-03-19T03:26:08.951Z,100958.91
2023-03-19T03:28:38.503Z,100956.47
2023-03-19T03:31:08.204Z,100959.09
2023-03-19T03:33:38.335Z,100958.28
2023-03-19T03:36:08.705Z,100955.31
2023-03-19T03:38:38.278Z,100949.59
2023-03-19T03:41:08.589Z,100944.22
2023-03-19T03:43:38.160Z,100940.28
2023-03-19T03:46:08.932Z,100936.38
2023-03-19T03:48:38.672Z,100944.88
2023-03-19T03:51:09.025Z,100940.47
2023-03-19T03:53:38.622Z,100934.09
2023-03-19T03:56:08.638Z,100923.31
2023-03-19T03:58:38.269Z,100917.56
2023-03-19T04:01:09.169Z,100907.78
2023-03-19T04:03:39.190Z,100903.72
2023-03-19T04:06:08.955Z,100895.72
2023-03-19T04:08:38.603Z,100892.44
2023-03-19T04:11:11.464Z,100880.34
2023-03-19T04:13:41.317Z,100874.78
2023-03-19T04:16:12.573Z,100873.66
2023-03-19T04:18:42.243Z,100873.31
2023-03-19T04:21:11.847Z,100871.19
2023-03-19T04:23:41.471Z,100868.91
2023-03-19T04:26:12.043Z,100854.50
2023-03-19T04:28:41.573Z,100848.31
2023-03-19T04:31:12.353Z,100848.31
2023-03-19T04:33:41.950Z,100844.06
2023-03-19T04:36:11.580Z,100847.47
2023-03-19T04:38:41.170Z,100843.06
2023-03-19T04:41:10.725Z,100830.97
2023-03-19T04:43:40.320Z,100827.53
2023-03-19T04:46:10.040Z,100823.59
2023-03-19T04:48:40.985Z,100826.88
2023-03-19T04:51:11.102Z,100819.69
2023-03-19T04:53:41.501Z,100816.41
2023-03-19T04:56:11.274Z,100812.66
2023-03-19T04:58:40.885Z,100810.19
2023-03-19T05:01:10.722Z,100811.50
2023-03-19T05:03:40.602Z,100808.72
2023-03-19T05:06:10.843Z,100812.50
2023-03-19T05:08:40.409Z,100804.63
2023-03-19T05:11:10.125Z,100800.72
2023-03-19T05:13:39.731Z,100800.72
2023-03-19T05:16:09.573Z,100796.63
2023-03-19T05:18:41.269Z,100801.03
2023-03-19T05:21:13.939Z,100787.63
2023-03-19T05:23:43.672Z,100787.97
2023-03-19T05:26:13.689Z,100782.25
2023-03-19T05:28:43.309Z,100773.72
2023-03-19T05:31:12.887Z,100777.97
2023-03-19T05:33:43.382Z,100781.72
2023-03-19T05:36:13.900Z,100777.66
2023-03-19T05:38:43.585Z,100768.81
2023-03-19T05:41:13.319Z,100758.69
2023-03-19T05:43:43.205Z,100763.91
2023-03-19T05:46:12.988Z,100763.56
2023-03-19T05:48:42.620Z,100759.97
2023-03-19T05:51:13.168Z,100756.38
2023-03-19T05:53:42.731Z,100754.41
2023-03-19T05:56:12.474Z,100761.63
2023-03-19T05:58:42.086Z,100759.50
2023-03-19T06:01:12.066Z,100759.50
2023-03-19T06:03:41.782Z,100756.06
2023-03-19T06:06:11.452Z,100746.91
2023-03-19T06:08:41.184Z,100744.28
2023-03-19T06:11:11.701Z,100740.22
2023-03-19T06:13:41.376Z,100741.19
2023-03-19T06:16:11.354Z,100738.88
2023-03-19T06:18:41.194Z,100744.28
2023-03-19T06:21:11.295Z,100740.84
2023-03-19T06:23:41.126Z,100727.78
2023-03-19T06:26:10.816Z,100729.09
2023-03-19T06:28:40.374Z,100741.34
2023-03-19T06:31:09.981Z,100735.78
2023-03-19T06:33:39.526Z,100732.84
2023-03-19T06:36:09.364Z,100741.84
2023-03-19T06:38:39.356Z,100736.28
2023-03-19T06:41:09.348Z,100736.94
2023-03-19T06:43:39.090Z,100734.97
2023-03-19T06:46:10.862Z,100732.06
2023-03-19T06:48:41.332Z,100740.88
2023-03-19T06:51:10.997Z,100739.72
2023-03-19T06:53:41.405Z,100740.22
2023-03-19T06:56:11.936Z,100741.53
2023-03-19T06:58:41.517Z,100738.28
2023-03-19T07:01:11.161Z,100739.72
2023-03-19T07:03:40.759Z,100732.72
2023-03-19T07:06:10.638Z,100733.53
2023-03-19T07:08:40.215Z,100729.94
2023-03-19T07:11:10.237Z,100736.94
2023-03-19T07:13:39.815Z,100735.50
2023-03-19T07:16:10.345Z,100722.91
2023-03-19T07:18:39.998Z,100725.22
2023-03-19T07:21:12.547Z,100723.72
2023-03-19T07:23:43.115Z,100713.94
2023-03-19T07:26:13.168Z,100708.06
2023-03-19T07:28:43.117Z,100705.75
2023-03-19T07:31:12.868Z,100701.19
2023-03-19T07:33:42.554Z,100706.25
2023-03-19T07:36:12.850Z,100694.97
2023-03-19T07:38:42.503Z,100693.66
2023-03-19T07:41:12.204Z,100696.09
2023-03-19T07:43:41.934Z,100687.28
2023-03-19T07:46:11.839Z,100677.16
2023-03-19T07:48:41.510Z,100682.41
2023-03-19T07:51:11.073Z,100683.88
2023-03-19T07:53:40.752Z,100680.09
2023-03-19T07:56:10.427Z,100683.06
2023-03-19T07:58:39.969Z,100685.53
2023-03-19T08:01:10.741Z,100682.75
2023-03-19T08:03:41.006Z,100681.44
2023-03-19T08:06:10.658Z,100678.66
2023-03-19T08:08:40.273Z,100676.22
2023-03-19T08:11:10.282Z,100675.72
2023-03-19T08:13:39.820Z,100677.69
2023-03-19T08:16:10.100Z,100692.06
2023-03-19T08:18:39.906Z,100677.34
2023-03-19T08:21:09.897Z,100684.06
2023-03-19T08:23:39.496Z,100684.72
2023-03-19T08:26:09.812Z,100683.91
2023-03-19T08:28:40.703Z,100684.72
2023-03-19T08:31:12.598Z,100687.00
2023-03-19T08:33:43.097Z,100693.72
2023-03-19T08:36:16.029Z,100692.38
2023-03-19T08:38:45.772Z,100693.50
2023-03-19T08:41:15.495Z,100697.09
2023-03-19T08:43:45.007Z,100689.91
2023-03-19T08:46:14.844Z,100701.03
2023-03-19T08:48:44.754Z,100699.06
2023-03-19T08:51:14.537Z,100696.94
2023-03-19T08:53:44.103Z,100703.31
2023-03-19T08:56:13.727Z,100705.59
2023-03-19T08:58:44.228Z,100701.69
2023-03-19T09:01:16.254Z,100697.59
2023-03-19T09:03:46.936Z,100697.59
2023-03-19T09:06:16.546Z,100700.72
2023-03-19T09:08:46.375Z,100700.53
2023-03-19T09:11:18.310Z,100700.53
2023-03-19T09:13:48.074Z,100696.13
2023-03-19T09:16:18.288Z,100701.19
2023-03-19T09:18:48.180Z,100705.94
2023-03-19T09:21:17.819Z,100703.81
2023-03-19T09:23:47.549Z,100710.19
2023-03-19T09:26:17.182Z,100708.88
2023-03-19T09:28:46.745Z,100707.56
2023-03-19T09:31:16.387Z,100694.81
2023-03-19T09:33:46.063Z,100702.63
2023-03-19T09:36:15.683Z,100694.63
2023-03-19T09:38:45.248Z,100698.03
2023-03-19T09:41:41.879Z,100700.31
2023-03-19T09:44:37.172Z,100703.41
2023-03-19T09:47:06.930Z,100706.84
2023-03-19T09:49:45.178Z,100699.66
2023-03-19T09:52:39.140Z,100704.88
2023-03-19T09:55:19.088Z,100714.69
2023-03-19T09:57:50.024Z,100717.47
2023-03-19T10:00:30.255Z,100727.25
2023-03-19T10:03:45.515Z,100721.22
2023-03-19T10:06:35.248Z,100716.81
2023-03-19T10:09:23.004Z,100716.31
2023-03-19T10:12:07.853Z,100709.13
2023-03-19T10:14:50.316Z,100716.13
2023-03-19T10:17:37.164Z,100711.41
2023-03-19T10:20:12.107Z,100722.00
2023-03-19T10:22:59.460Z,100727.06
2023-03-19T10:25:31.483Z,100718.25
2023-03-19T10:28:22.890Z,100718.25
2023-03-19T10:31:31.527Z,100718.91
2023-03-19T10:34:34.203Z,100732.28
2023-03-19T10:37:09.488Z,100724.78
2023-03-19T10:39:41.558Z,100724.28
2023-03-19T10:42:11.102Z,100727.34
2023-03-19T10:45:09.636Z,100730.13
2023-03-19T10:47:43.581Z,100729.63
2023-03-19T10:50:22.392Z,100724.72
2023-03-19T10:53:05.634Z,100723.09
2023-03-19T10:55:36.418Z,100720.63
2023-03-19T10:58:17.332Z,100724.56
2023-03-19T11:00:51.337Z,100733.19
2023-03-19T11:03:34.380Z,100729.28
2023-03-19T11:06:10.439Z,100725.19
2023-03-19T11:08:40.586Z,100731.56
2023-03-19T11:11:34.624Z,100726.34
2023-03-19T11:14:21.834Z,100733.84
2023-03-19T11:17:31.423Z,100736.94
2023-03-19T11:20:10.114Z,100736.13
2023-03-19T11:22:41.923Z,100734.47
2023-03-19T11:25:30.664Z,100744.25
2023-03-19T11:28:22.103Z,100741.50
2023-03-19T11:31:35.485Z,100729.09
2023-03-19T11:34:05.076Z,100727.44
2023-03-19T11:36:40.545Z,100727.44
2023-03-19T11:39:29.015Z,100734.13
2023-03-19T11:42:23.456Z,100726.47
2023-03-19T11:45:03.323Z,100738.88
2023-03-19T11:47:45.022Z,100741.31
2023-03-19T11:50:29.452Z,100731.69
2023-03-19T11:53:01.945Z,100729.72
2023-03-19T11:55:41.577Z,100735.28
2023-03-19T11:58:38.836Z,100737.22
2023-03-19T12:01:46.074Z,100738.69
2023-03-19T12:04:52.359Z,100736.72
2023-03-19T12:07:44.052Z,100738.50
2023-03-19T12:10:29.225Z,100737.16
2023-03-19T12:13:23.869Z,100737.66
2023-03-19T12:16:20.333Z,100745.97
2023-03-19T12:19:02.032Z,100737.38
2023-03-19T12:21:43.676Z,100745.69
2023-03-19T12:24:23.170Z,100751.03
2023-03-19T12:27:05.852Z,100742.72
2023-03-19T12:29:58.977Z,100740.59
2023-03-19T12:32:34.771Z,100751.66
2023-03-19T12:35:21.296Z,100749.53
2023-03-19T12:38:15.778Z,100746.28
2023-03-19T12:40:50.181Z,100745.13
2023-03-19T12:43:56.864Z,100752.94
2023-03-19T12:46:39.488Z,100755.72
2023-03-19T12:49:48.063Z,100748.53
2023-03-19T12:52:20.436Z,100741.88
2023-03-19T12:55:06.015Z,100742.00
2023-03-19T12:57:38.252Z,100739.22
2023-03-19T13:00:21.790Z,100731.72
2023-03-19T13:02:59.192Z,100732.06
2023-03-19T13:05:47.926Z,100746.22
2023-03-19T13:08:40.045Z,100740.69
2023-03-19T13:11:28.154Z,100725.50
2023-03-19T13:14:06.165Z,100721.59
2023-03-19T13:17:04.788Z,100729.91
2023-03-19T13:19:43.607Z,100724.69
2023-03-19T13:22:17.605Z,100721.75
2023-03-19T13:24:49.604Z,100718.66
2023-03-19T13:27:32.996Z,100724.84
2023-03-19T13:30:14.671Z,100722.88
2023-03-19T13:32:53.751Z,100733.47
2023-03-19T13:35:38.673Z,100726.78
2023-03-19T13:38:46.379Z,100728.75
2023-03-19T13:41:37.370Z,100735.44
2023-03-19T13:44:25.152Z,100748.78
2023-03-19T13:46:55.061Z,100746.28
2023-03-19T13:49:32.621Z,100745.78
2023-03-19T13:52:06.284Z,100741.34
2023-03-19T13:54:42.544Z,100735.81
2023-03-19T13:57:18.408Z,100736.66
2023-03-19T13:59:49.945Z,100736.44
2023-03-19T14:02:25.778Z,100734.41
2023-03-19T14:05:20.105Z,100740.84
2023-03-19T14:07:55.574Z,100743.63
2023-03-19T14:10:33.566Z,100738.09
2023-03-19T14:13:07.956Z,100737.91
2023-03-19T14:15:40.963Z,100733.69
2023-03-19T14:18:20.335Z,100726.31
2023-03-19T14:21:13.023Z,100730.56
2023-03-19T14:23:53.173Z,100738.53
2023-03-19T14:27:17.704Z,100734.94
2023-03-19T14:30:17.439Z,100732.69
2023-03-19T14:32:49.529Z,100730.03
2023-03-19T14:35:22.213Z,100732.81
2023-03-19T14:37:55.933Z,100730.03
2023-03-19T14:40:46.402Z,100724.00
2023-03-19T14:43:58.723Z,100732.31
2023-03-19T14:47:02.717Z,100720.09
2023-03-19T14:50:26.915Z,100733.13
2023-03-19T14:53:16.302Z,100732.31
2023-03-19T14:55:49.398Z,100729.03
2023-03-19T14:59:11.118Z,100736.53
2023-03-19T15:02:17.272Z,100742.25
2023-03-19T15:05:26.239Z,100738.50
2023-03-19T15:08:06.036Z,100738.00
2023-03-19T15:11:00.339Z,100735.53
2023-03-19T15:13:36.311Z,100731.94
2023-03-19T15:16:48.031Z,100728.69
2023-03-19T15:19:21.954Z,100735.03
2023-03-19T15:22:47.886Z,100736.00
2023-03-19T15:25:54.196Z,100737.94
2023-03-19T15:28:23.820Z,100740.91
2023-03-19T15:31:26.806Z,100728.19
2023-03-19T15:33:55.361Z,100739.75
2023-03-19T15:36:31.568Z,100736.50
2023-03-19T15:39:07.813Z,100723.13
2023-03-19T15:41:43.365Z,100729.81
2023-03-19T15:44:27.635Z,100725.41
2023-03-19T15:46:59.560Z,100722.63
2023-03-19T15:49:34.517Z,100715.78
2023-03-19T15:52:09.114Z,100717.72
2023-03-19T15:54:38.859Z,100720.06
2023-03-19T15:57:10.410Z,100725.72
2023-03-19T15:59:40.368Z,100718.56
2023-03-19T16:02:42.003Z,100736.00
2023-03-19T16:05:41.041Z,100734.34
2023-03-19T16:08:27.762Z,100729.00
2023-03-19T16:10:57.764Z,100732.69
2023-03-19T16:13:34.715Z,100720.50
2023-03-19T16:16:22.985Z,100718.66
2023-03-19T16:18:57.740Z,100721.25
2023-03-19T16:21:30.111Z,100721.56
2023-03-19T16:24:11.198Z,100721.88
2023-03-19T16:26:43.851Z,100717.66
2023-03-19T16:29:27.832Z,100706.88
2023-03-19T16:32:20.917Z,100699.22
2023-03-19T16:35:15.688Z,100700.84
2023-03-19T16:37:54.946Z,100697.56
2023-03-19T16:40:25.336Z,100692.53
2023-03-19T16:43:08.062Z,100694.00
2023-03-19T16:45:37.850Z,100694.19
2023-03-19T16:48:07.691Z,100690.41
2023-03-19T16:50:42.403Z,100686.63
2023-03-19T16:53:38.047Z,100689.72
2023-03-19T16:56:08.146Z,100685.50
2023-03-19T16:58:45.785Z,100690.53
2023-03-19T17:01:21.453Z,100692.66
2023-03-19T17:03:56.528Z,100683.03
2023-03-19T17:06:26.671Z,100686.44
2023-03-19T17:08:56.439Z,100687.25
2023-03-19T17:11:30.182Z,100683.34
2023-03-19T17:14:01.301Z,100683.34
2023-03-19T17:16:31.688Z,100678.97
2023-03-19T17:19:01.523Z,100667.56
2023-03-19T17:21:35.034Z,100665.94
2023-03-19T17:24:26.036Z,100665.75
2023-03-19T17:26:57.175Z,100663.16
2023-03-19T17:29:27.727Z,100655.66
2023-03-19T17:31:59.862Z,100654.66
2023-03-19T17:34:33.419Z,100655.47
2023-03-19T17:37:05.263Z,100660.19
2023-03-19T17:39:35.653Z,100654.16
2023-03-19T17:42:08.907Z,100645.34
2023-03-19T17:44:38.522Z,100638.69
2023-03-19T17:47:08.277Z,100650.56
2023-03-19T17:49:37.886Z,100645.03
2023-03-19T17:52:16.385Z,100643.41
2023-03-19T17:54:47.137Z,100637.06
2023-03-19T17:57:17.803Z,100645.69
2023-03-19T17:59:47.501Z,100644.84
2023-03-19T18:02:32.019Z,100642.09
2023-03-19T18:05:01.786Z,100641.56
2023-03-19T18:07:31.420Z,100628.03
2023-03-19T18:10:01.036Z,100620.53
2023-03-19T18:12:30.621Z,100623.31
2023-03-19T18:15:00.280Z,100622.81
2023-03-19T18:17:29.778Z,100624.44
2023-03-19T18:19:59.827Z,100626.41
2023-03-19T18:22:30.626Z,100631.13
2023-03-19T18:25:00.264Z,100626.41
2023-03-19T18:27:29.849Z,100619.03
2023-03-19T18:29:59.491Z,100629.47
2023-03-19T18:32:33.909Z,100625.41
2023-03-19T18:35:05.062Z,100630.63
2023-03-19T18:37:37.653Z,100629.78
2023-03-19T18:40:07.744Z,100630.94
2023-03-19T18:42:37.411Z,100634.00
2023-03-19T18:45:07.495Z,100627.97
2023-03-19T18:47:37.868Z,100626.84
2023-03-19T18:50:25.021Z,100629.28
2023-03-19T18:52:55.970Z,100634.84
2023-03-19T18:55:35.603Z,100632.38
2023-03-19T18:58:05.719Z,100633.19
2023-03-19T19:00:37.713Z,100630.75
2023-03-19T19:03:07.646Z,100626.84
2023-03-19T19:05:37.852Z,100634.66
2023-03-19T19:08:14.965Z,100634.66
2023-03-19T19:10:51.000Z,100628.59
2023-03-19T19:13:38.635Z,100628.94
2023-03-19T19:16:22.460Z,100625.84
2023-03-19T19:18:52.011Z,100627.47
2023-03-19T19:21:21.666Z,100627.66
2023-03-19T19:23:51.273Z,100633.00
2023-03-19T19:26:25.831Z,100626.97
2023-03-19T19:28:58.225Z,100622.56
2023-03-19T19:31:33.823Z,100614.28
2023-03-19T19:34:03.513Z,100618.84
2023-03-19T19:36:33.361Z,100616.41
2023-03-19T19:39:03.026Z,100602.38
2023-03-19T19:41:35.457Z,100606.78
2023-03-19T19:44:05.233Z,100610.69
2023-03-19T19:46:35.231Z,100615.72
2023-03-19T19:49:04.864Z,100610.38
2023-03-19T19:51:34.416Z,100618.50
2023-03-19T19:54:03.933Z,100614.28
2023-03-19T19:56:33.607Z,100611.31
2023-03-19T19:59:03.266Z,100608.38
2023-03-19T20:01:33.103Z,100610.63
2023-03-19T20:04:02.833Z,100604.19
2023-03-19T20:06:32.506Z,100607.25
2023-03-19T20:09:02.138Z,100604.31
2023-03-19T20:11:33.501Z,100605.63
2023-03-19T20:14:03.111Z,100605.13
2023-03-19T20:16:32.681Z,100599.09
2023-03-19T20:19:03.084Z,100608.22
2023-03-19T20:21:33.577Z,100608.34
2023-03-19T20:24:03.337Z,100614.88
2023-03-19T20:26:35.462Z,100606.56
2023-03-19T20:29:06.138Z,100610.59
2023-03-19T20:31:37.856Z,100610.91
2023-03-19T20:34:07.407Z,100602.00
2023-03-19T20:36:36.942Z,100598.41
2023-03-19T20:39:06.588Z,100603.94
2023-03-19T20:41:36.267Z,100590.09
2023-03-19T20:44:07.559Z,100599.34
2023-03-19T20:46:38.130Z,100610.41
2023-03-19T20:49:07.857Z,100608.56
2023-03-19T20:51:37.425Z,100608.78
2023-03-19T20:54:07.627Z,100606.31
2023-03-19T20:56:39.273Z,100615.53
2023-03-19T20:59:11.875Z,100616.53
2023-03-19T21:01:41.556Z,100618.00
2023-03-19T21:04:20.075Z,100619.25
2023-03-19T21:06:53.634Z,100622.16
2023-03-19T21:09:25.121Z,100621.66
2023-03-19T21:11:54.741Z,100631.78
2023-03-19T21:14:28.459Z,100634.94
2023-03-19T21:16:58.002Z,100630.44
2023-03-19T21:19:27.609Z,100620.53
2023-03-19T21:21:57.275Z,100616.75
2023-03-19T21:24:27.771Z,100617.81
2023-03-19T21:26:58.405Z,100620.34
2023-03-19T21:29:34.670Z,100612.94
2023-03-19T21:32:04.182Z,100611.69
2023-03-19T21:34:33.869Z,100610.78
2023-03-19T21:37:03.559Z,100609.72
2023-03-19T21:39:34.073Z,100608.31
2023-03-19T21:42:09.686Z,100612.44
2023-03-19T21:44:39.735Z,100613.34
2023-03-19T21:47:15.248Z,100607.03
2023-03-19T21:49:44.871Z,100606.59
2023-03-19T21:52:17.242Z,100594.25
2023-03-19T21:54:46.856Z,100602.03
2023-03-19T21:57:18.773Z,100606.81
2023-03-19T21:59:48.564Z,100609.03
2023-03-19T22:02:30.276Z,100611.28
2023-03-19T22:04:59.951Z,100599.69
2023-03-19T22:07:29.723Z,100601.56
2023-03-19T22:09:59.445Z,100609.81
2023-03-19T22:12:30.816Z,100616.38
2023-03-19T22:15:00.382Z,100609.41
2023-03-19T22:17:30.718Z,100624.06
2023-03-19T22:20:00.387Z,100634.16
2023-03-19T22:22:30.570Z,100631.94
2023-03-19T22:25:01.812Z,100628.97
2023-03-19T22:27:31.444Z,100635.00
2023-03-19T22:30:03.590Z,100629.88
2023-03-19T22:32:33.363Z,100632.19
2023-03-19T22:35:04.700Z,100640.78
2023-03-19T22:37:34.492Z,100641.00
2023-03-19T22:40:04.146Z,100641.00
2023-03-19T22:42:33.806Z,100647.31
2023-03-19T22:45:03.476Z,100647.63
2023-03-19T22:47:37.487Z,100649.81
2023-03-19T22:50:08.412Z,100658.09
2023-03-19T22:52:38.235Z,100664.03
2023-03-19T22:55:08.234Z,100663.78
2023-03-19T22:57:37.762Z,100665.41
2023-03-19T23:00:14.666Z,100657.69
2023-03-19T23:02:44.878Z,100658.38
2023-03-19T23:05:29.435Z,100654.06
2023-03-19T23:07:59.462Z,100649.63
2023-03-19T23:10:31.990Z,100664.66
2023-03-19T23:13:02.456Z,100660.69
2023-03-19T23:15:33.130Z,100661.94
2023-03-19T23:18:03.784Z,100662.66
2023-03-19T23:20:35.231Z,100665.31
2023-03-19T23:23:04.777Z,100672.09
2023-03-19T23:25:35.374Z,100672.41
2023-03-19T23:28:05.399Z,100670.53
2023-03-19T23:30:36.025Z,100675.09
2023-03-19T23:33:05.856Z,100679.97
2023-03-19T23:35:36.686Z,100674.28
2023-03-19T23:38:06.434Z,100677.78
2023-03-19T23:40:36.654Z,100683.88
2023-03-19T23:43:07.151Z,100688.22
2023-03-19T23:45:44.765Z,100684.09
2023-03-19T23:48:27.361Z,100680.06
2023-03-19T23:50:56.878Z,100680.88
2023-03-19T23:53:29.004Z,100668.81
2023-03-19T23:56:06.320Z,100665.19
2023-03-19T23:58:44.649Z,100667.38
